Map

Track Data

SID SEASON NUMBER BASIN SUBBASIN NAME ISO_TIME NATURE LAT LON WMO_WIND WMO_PRES WMO_AGENCY TRACK_TYPE DIST2LAND LANDFALL IFLAG USA_AGENCY USA_ATCF_ID USA_LAT USA_LON USA_RECORD USA_STATUS USA_WIND USA_PRES USA_SSHS USA_R34_NE USA_R34_SE USA_R34_SW USA_R34_NW USA_R50_NE USA_R50_SE USA_R50_SW USA_R50_NW USA_R64_NE USA_R64_SE USA_R64_SW USA_R64_NW USA_POCI USA_ROCI USA_RMW USA_EYE TOKYO_LAT TOKYO_LON TOKYO_GRADE TOKYO_WIND TOKYO_PRES TOKYO_R50_DIR TOKYO_R50_LONG TOKYO_R50_SHORT TOKYO_R30_DIR TOKYO_R30_LONG TOKYO_R30_SHORT TOKYO_LAND CMA_LAT CMA_LON CMA_CAT CMA_WIND CMA_PRES HKO_LAT HKO_LON HKO_CAT HKO_WIND HKO_PRES NEWDELHI_LAT NEWDELHI_LON NEWDELHI_GRADE NEWDELHI_WIND NEWDELHI_PRES NEWDELHI_CI NEWDELHI_DP NEWDELHI_POCI REUNION_LAT REUNION_LON REUNION_TYPE REUNION_WIND REUNION_PRES REUNION_TNUM REUNION_CI REUNION_RMW REUNION_R34_NE REUNION_R34_SE REUNION_R34_SW REUNION_R34_NW REUNION_R50_NE REUNION_R50_SE REUNION_R50_SW REUNION_R50_NW REUNION_R64_NE REUNION_R64_SE REUNION_R64_SW REUNION_R64_NW BOM_LAT BOM_LON BOM_TYPE BOM_WIND BOM_PRES BOM_TNUM BOM_CI BOM_RMW BOM_R34_NE BOM_R34_SE BOM_R34_SW BOM_R34_NW BOM_R50_NE BOM_R50_SE BOM_R50_SW BOM_R50_NW BOM_R64_NE BOM_R64_SE BOM_R64_SW BOM_R64_NW BOM_ROCI BOM_POCI BOM_EYE BOM_POS_METHOD BOM_PRES_METHOD NADI_LAT NADI_LON NADI_CAT NADI_WIND NADI_PRES WELLINGTON_LAT WELLINGTON_LON WELLINGTON_WIND WELLINGTON_PRES DS824_LAT DS824_LON DS824_STAGE DS824_WIND DS824_PRES TD9636_LAT TD9636_LON TD9636_STAGE TD9636_WIND TD9636_PRES TD9635_LAT TD9635_LON TD9635_WIND TD9635_PRES TD9635_ROCI NEUMANN_LAT NEUMANN_LON NEUMANN_CLASS NEUMANN_WIND NEUMANN_PRES MLC_LAT MLC_LON MLC_CLASS MLC_WIND MLC_PRES USA_GUST BOM_GUST BOM_GUST_PER REUNION_GUST REUNION_GUST_PER USA_SEAHGT USA_SEARAD_NE USA_SEARAD_SE USA_SEARAD_SW USA_SEARAD_NW STORM_SPEED STORM_DIR
1990253N13258 1990 86 EP MM NOT_NAMED 1990-09-09 18:00:00 TS 12.8000 -102.300 25 hurdat_epa spur-merge 518 504 O_____________ hurdat_epa EP181990 12.8000 -102.300 TD 25 -1 9 304
1990253N13258 1990 86 EP MM NOT_NAMED 1990-09-09 21:00:00 TS 13.0451 -102.667 spur-merge 511 491 P_____________ EP181990 13.0451 -102.667 TD 25 -1 9 303
1990253N13258 1990 86 EP MM NOT_NAMED 1990-09-10 00:00:00 TS 13.3000 -103.100 25 hurdat_epa spur-merge 496 491 O_____________ hurdat_epa EP181990 13.3000 -103.100 TD 25 -1 11 299
1990253N13258 1990 86 EP MM NOT_NAMED 1990-09-10 03:00:00 TS 13.5774 -103.648 spur-merge 493 489 P_____________ EP181990 13.5774 -103.648 TD 25 -1 13 297
1990253N13258 1990 86 EP MM NOT_NAMED 1990-09-10 06:00:00 TS 13.9000 -104.300 25 hurdat_epa spur-merge 493 475 O_____________ hurdat_epa EP181990 13.9000 -104.300 TD 25 -1 15 297
1990253N13258 1990 86 EP MM NOT_NAMED 1990-09-10 09:00:00 TS 14.2776 -105.043 spur-merge 475 466 P_____________ EP181990 14.2776 -105.043 TD 25 -1 17 299
1990253N13258 1990 86 EP MM NOT_NAMED 1990-09-10 12:00:00 TS 14.7000 -105.800 25 hurdat_epa spur-merge 471 467 O_____________ hurdat_epa EP181990 14.7000 -105.800 TD 25 -1 16 301
1990253N13258 1990 86 EP MM NOT_NAMED 1990-09-10 15:00:00 TS 15.1273 -106.480 spur-merge 479 470 P_____________ EP181990 15.1273 -106.480 TD 25 -1 15 306
1990253N13258 1990 86 EP MM NOT_NAMED 1990-09-10 18:00:00 TS 15.6000 -107.100 25 hurdat_epa spur-merge 470 456 O_____________ hurdat_epa EP181990 15.6000 -107.100 TD 25 -1 15 311
1990253N13258 1990 86 EP MM NOT_NAMED 1990-09-10 21:00:00 TS 16.1348 -107.673 spur-merge 463 453 P_____________ EP181990 16.1348 -107.673 TD 25 -1 15 316
1990253N13258 1990 86 EP MM NOT_NAMED 1990-09-11 00:00:00 TS 16.7000 -108.200 25 hurdat_epa spur-merge 453 445 O_____________ hurdat_epa EP181990 16.7000 -108.200 TD 25 -1 15 318
1990253N13258 1990 86 EP MM NOT_NAMED 1990-09-11 03:00:00 TS 17.2498 -108.708 spur-merge 454 447 P_____________ EP181990 17.2498 -108.708 TD 25 -1 15 319
1990253N13258 1990 86 EP MM NOT_NAMED 1990-09-11 06:00:00 TS 17.8000 -109.200 25 hurdat_epa spur-merge 460 457 O_____________ hurdat_epa EP181990 17.8000 -109.200 TD 25 -1 15 320
1990253N13258 1990 86 EP MM NOT_NAMED 1990-09-11 09:00:00 TS 18.3723 -109.693 spur-merge 475 447 P_____________ EP181990 18.3723 -109.693 TD 25 -1 15 319
1990253N13258 1990 86 EP MM NOT_NAMED 1990-09-11 12:00:00 TS 18.9000 -110.200 25 hurdat_epa spur-merge 447 407 O_____________ hurdat_epa EP181990 18.9000 -110.200 TD 25 -1 14 315
1990253N13258 1990 86 EP MM NOT_NAMED 1990-09-11 15:00:00 TS 19.3673 -110.735 spur-merge 398 378 P_____________ EP181990 19.3673 -110.735 TD 25 -1 13 308
1990253N13258 1990 86 EP MM NOT_NAMED 1990-09-11 18:00:00 TS 19.7000 -111.300 25 hurdat_epa spur-merge 382 375 O_____________ hurdat_epa EP181990 19.7000 -111.300 TD 25 -1 12 295
1990253N13258 1990 86 EP MM NOT_NAMED 1990-09-11 21:00:00 TS 19.8823 -111.885 spur-merge 388 388 P_____________ EP181990 19.8823 -111.885 TD 27 -1 11 280
1990253N13258 1990 86 EP MM NOT_NAMED 1990-09-12 00:00:00 TS 19.9000 -112.500 30 hurdat_epa spur-merge 423 423 O_____________ hurdat_epa EP181990 19.9000 -112.500 TD 30 -1 12 266
1990253N13258 1990 86 EP MM NOT_NAMED 1990-09-12 03:00:00 TS 19.8026 -113.173 spur-merge 479 479 P_____________ EP181990 19.8026 -113.173 TD 30 -1 13 256
1990253N13258 1990 86 EP MM NOT_NAMED 1990-09-12 06:00:00 TS 19.6000 -113.800 30 hurdat_epa spur-merge 539 539 O_____________ hurdat_epa EP181990 19.6000 -113.800 TD 30 -1 12 248
1990253N13258 1990 86 EP MM NOT_NAMED 1990-09-12 09:00:00 TS 19.3649 -114.318 spur-merge 593 593 P_____________ EP181990 19.3649 -114.318 TD 30 -1 10 240
1990253N13258 1990 86 EP MM NOT_NAMED 1990-09-12 12:00:00 TS 19.1000 -114.700 30 hurdat_epa spur-merge 646 646 O_____________ hurdat_epa EP181990 19.1000 -114.700 TD 30 -1 8 229
1990253N13258 1990 86 EP MM NOT_NAMED 1990-09-12 15:00:00 TS 18.8450 -114.940 spur-merge 684 684 P_____________ EP181990 18.8450 -114.940 TD 30 -1 6 217
1990253N13258 1990 86 EP MM NOT_NAMED 1990-09-12 18:00:00 TS 18.6000 -115.100 30 hurdat_epa spur-merge 715 O_____________ hurdat_epa EP181990 18.6000 -115.100 TD 30 -1 6 212

About IBTrACS Database

This database is a web-friendly format of International Best Track Archive for Climate Stewardship (IBTrACS), a global best track data archive curated by NOAA dating back to 1842.

Updated: 2021-10-25